Akeley, Minnesota
Current Conditions -  °F | °C
As of 2:15 AM on Monday 24 Nov 2014 (Local Time) from KY49 Reporting Station
Overcast Overcast  
Wind Chill:   Ceiling: 800
Heat Index: 18°   Visibility: 10mi
Dew Point: 16°   Wind: 12mph
Humidity: 90%   Direction: 300°WNW
Pressure: 29.41"   Gusts: 17mph
Location:  47°N, 94.73°W
Report Text: KY49 240815Z AUTO 30010G15KT 290V350 10SM OVC008 M08/M09 A2941 RMK AO2 T10761090
Loading
Personal Weather Stations






























Interactive Weather Map New forecast layout! Learn more

10-Day Weather Forecast

Advertisements
Track Severe Weather on mobile